createdAt,value
2018-05-26T00:03:47.406Z,1020.9
2018-05-26T00:08:47.205Z,1021
2018-05-26T00:13:47.358Z,1021
2018-05-26T00:18:47.359Z,1021.1
2018-05-26T00:23:50.743Z,1021
2018-05-26T00:28:50.631Z,1021.1
2018-05-26T00:34:00.900Z,1021
2018-05-26T00:39:00.769Z,1021.1
2018-05-26T00:44:00.614Z,1021.1
2018-05-26T00:49:00.805Z,1021.1
2018-05-26T00:54:00.845Z,1021.2
2018-05-26T00:59:00.783Z,1021.2
2018-05-26T01:04:00.812Z,1021.2
2018-05-26T01:09:02.206Z,1021.2
2018-05-26T01:14:01.915Z,1021.1
2018-05-26T01:19:15.359Z,1021.1
2018-05-26T01:24:15.285Z,1021.1
2018-05-26T01:29:15.115Z,1021.1
2018-05-26T01:34:15.273Z,1021.1
2018-05-26T01:39:15.299Z,1021.1
2018-05-26T01:44:15.105Z,1021
2018-05-26T01:49:15.264Z,1021
2018-05-26T01:54:15.297Z,1021
2018-05-26T01:59:15.493Z,1021
2018-05-26T02:04:28.026Z,1021.1
2018-05-26T02:09:27.753Z,1021.2
2018-05-26T02:14:27.749Z,1021.3
2018-05-26T02:19:27.938Z,1021.3
2018-05-26T02:24:27.749Z,1021.3
2018-05-26T02:29:27.913Z,1021.3
2018-05-26T02:34:27.954Z,1021.3
2018-05-26T02:39:27.928Z,1021.3
2018-05-26T02:44:28.119Z,1021.3
2018-05-26T02:49:40.162Z,1021.5
2018-05-26T02:54:40.073Z,1021.3
2018-05-26T02:59:40.004Z,1021.3
2018-05-26T03:04:40.111Z,1021.3
2018-05-26T03:09:44.507Z,1021.4
2018-05-26T03:14:44.123Z,1021.3
2018-05-26T03:19:44.148Z,1021.2
2018-05-26T03:24:44.132Z,1021.3
2018-05-26T03:29:44.658Z,1021.4
2018-05-26T03:34:44.512Z,1021.4
2018-05-26T03:39:44.141Z,1021.4
2018-05-26T03:44:47.454Z,1021.4
2018-05-26T03:49:47.019Z,1021.6
2018-05-26T03:54:59.410Z,1021.7
2018-05-26T03:59:59.271Z,1021.8
2018-05-26T04:04:59.316Z,1021.8
2018-05-26T04:09:59.342Z,1021.8
2018-05-26T04:14:59.143Z,1021.8
2018-05-26T04:19:59.167Z,1021.8
2018-05-26T04:24:59.341Z,1021.7
2018-05-26T04:30:00.716Z,1021.7
2018-05-26T04:34:59.832Z,1021.8
2018-05-26T04:40:12.852Z,1021.8
2018-05-26T04:45:12.830Z,1021.9
2018-05-26T04:50:12.712Z,1021.8
2018-05-26T04:55:12.769Z,1022
2018-05-26T05:00:13.348Z,1022
2018-05-26T05:05:13.139Z,1022.1
2018-05-26T05:10:13.008Z,1022.1
2018-05-26T05:15:16.854Z,1022.1
2018-05-26T05:20:16.755Z,1022.1
2018-05-26T05:25:29.672Z,1022
2018-05-26T05:30:30.304Z,1022.2
2018-05-26T05:35:29.070Z,1022
2018-05-26T05:40:29.309Z,1022
2018-05-26T05:45:29.586Z,1022
2018-05-26T05:50:29.326Z,1022.1
2018-05-26T05:55:29.103Z,1022
2018-05-26T06:00:30.413Z,1022
2018-05-26T06:05:30.344Z,1022
2018-05-26T06:10:42.894Z,1022.1
2018-05-26T06:15:42.715Z,1022.1
2018-05-26T06:20:42.640Z,1022.1
2018-05-26T06:25:42.571Z,1022.3
2018-05-26T06:30:42.426Z,1022.2
2018-05-26T06:35:42.635Z,1022.2
2018-05-26T06:40:42.551Z,1022.2
2018-05-26T06:45:44.132Z,1022.1
2018-05-26T06:50:44.478Z,1022.1
2018-05-26T06:55:56.843Z,1022.1
2018-05-26T07:00:56.943Z,1022.1
2018-05-26T07:05:57.209Z,1021.9
2018-05-26T07:10:56.681Z,1021.9
2018-05-26T07:15:58.094Z,1021.9
2018-05-26T07:20:56.802Z,1021.8
2018-05-26T07:25:56.951Z,1021.8
2018-05-26T07:30:58.675Z,1021.7
2018-05-26T07:35:58.719Z,1021.5
2018-05-26T07:41:11.380Z,1021.6
2018-05-26T07:46:11.069Z,1021.4
2018-05-26T07:51:10.977Z,1021.2
2018-05-26T07:56:11.344Z,1021.2
2018-05-26T08:01:12.007Z,1021.2
2018-05-26T08:06:11.330Z,1021.1
2018-05-26T08:11:11.535Z,1021.2
2018-05-26T08:16:12.422Z,1021.3
2018-05-26T08:21:12.523Z,1021.2
2018-05-26T08:26:25.471Z,1021.2
2018-05-26T08:31:25.716Z,1021.1
2018-05-26T08:36:25.139Z,1021.1
2018-05-26T08:41:25.499Z,1021.1
2018-05-26T08:46:25.401Z,1021
2018-05-26T08:51:25.274Z,1021
2018-05-26T08:56:25.374Z,1020.9
2018-05-26T09:01:27.526Z,1020.8
2018-05-26T09:06:27.540Z,1020.8
2018-05-26T09:11:40.356Z,1020.7
2018-05-26T09:16:41.331Z,1020.6
2018-05-26T09:21:41.151Z,1020.6
2018-05-26T09:26:40.320Z,1020.6
2018-05-26T09:31:40.775Z,1020.6
2018-05-26T09:36:40.062Z,1020.6
2018-05-26T09:41:40.173Z,1020.6
2018-05-26T09:46:43.853Z,1020.6
2018-05-26T09:51:44.084Z,1020.4
2018-05-26T09:56:54.657Z,1020.4
2018-05-26T10:01:54.791Z,1020.3
2018-05-26T10:06:54.499Z,1020.3
2018-05-26T10:11:54.395Z,1020.3
2018-05-26T10:16:54.486Z,1020.1
2018-05-26T10:21:55.134Z,1020
2018-05-26T10:26:54.943Z,1020
2018-05-26T10:31:54.946Z,1020.1
2018-05-26T10:36:54.774Z,1020.1
2018-05-26T10:41:54.983Z,1020
2018-05-26T10:46:54.987Z,1020
2018-05-26T10:51:55.160Z,1019.9
2018-05-26T10:56:55.716Z,1020
2018-05-26T11:01:55.523Z,1019.9
2018-05-26T11:07:11.918Z,1019.8
2018-05-26T11:12:11.262Z,1019.8
2018-05-26T11:17:10.210Z,1019.8
2018-05-26T11:22:11.812Z,1019.8
2018-05-26T11:27:10.324Z,1019.8
2018-05-26T11:32:10.153Z,1019.7
2018-05-26T11:37:11.187Z,1019.6
2018-05-26T11:42:10.213Z,1019.5
2018-05-26T11:47:10.524Z,1019.5
2018-05-26T11:52:10.201Z,1019.5
2018-05-26T11:57:10.224Z,1019.5
2018-05-26T12:02:11.027Z,1019.3
2018-05-26T12:07:12.566Z,1019.3
2018-05-26T12:12:12.465Z,1019.3
2018-05-26T12:17:25.667Z,1019.2
2018-05-26T12:22:25.237Z,1019.1
2018-05-26T12:27:25.273Z,1019.1
2018-05-26T12:32:25.049Z,1019
2018-05-26T12:37:25.061Z,1019
2018-05-26T12:42:25.274Z,1019
2018-05-26T12:47:26.277Z,1018.8
2018-05-26T12:52:25.243Z,1018.8
2018-05-26T12:57:25.269Z,1018.8
2018-05-26T13:02:39.348Z,1018.8
2018-05-26T13:07:38.921Z,1018.7
2018-05-26T13:12:38.857Z,1018.7
2018-05-26T13:17:39.943Z,1018.6
2018-05-26T13:22:40.180Z,1018.6
2018-05-26T13:27:40.295Z,1018.5
2018-05-26T13:32:39.032Z,1018.5
2018-05-26T13:37:38.996Z,1018.5
2018-05-26T13:42:39.218Z,1018.5
2018-05-26T13:47:39.240Z,1018.5
2018-05-26T13:52:39.287Z,1018.4
2018-05-26T13:57:39.180Z,1018.4
2018-05-26T14:02:40.275Z,1018.3
2018-05-26T14:07:39.837Z,1018.3
2018-05-26T14:12:52.291Z,1018.4
2018-05-26T14:17:52.841Z,1018.3
2018-05-26T14:22:52.134Z,1018.2
2018-05-26T14:27:53.217Z,1018.3
2018-05-26T14:32:52.109Z,1018.2
2018-05-26T14:37:52.149Z,1018.2
2018-05-26T14:42:51.919Z,1018.2
2018-05-26T14:47:52.769Z,1018.1
2018-05-26T14:52:52.658Z,1018.2
2018-05-26T14:58:06.425Z,1018.2
2018-05-26T15:03:06.173Z,1018.3
2018-05-26T15:08:05.219Z,1018.3
2018-05-26T15:13:06.019Z,1018.3
2018-05-26T15:18:05.146Z,1018.3
2018-05-26T15:23:06.197Z,1018.3
2018-05-26T15:28:05.229Z,1018.3
2018-05-26T15:33:05.468Z,1018.2
2018-05-26T15:38:07.969Z,1018.2
2018-05-26T15:43:06.632Z,1018.1
2018-05-26T15:48:05.204Z,1018.1
2018-05-26T15:53:05.190Z,1018
2018-05-26T15:58:07.948Z,1018.1
2018-05-26T16:03:08.121Z,1018.1
2018-05-26T16:08:20.977Z,1018.3
2018-05-26T16:13:21.677Z,1018.3
2018-05-26T16:18:20.584Z,1018.3
2018-05-26T16:23:20.873Z,1018.3
2018-05-26T16:28:20.662Z,1018.3
2018-05-26T16:33:20.701Z,1018.3
2018-05-26T16:38:20.628Z,1018.3
2018-05-26T16:43:21.108Z,1018.4
2018-05-26T16:48:21.130Z,1018.5
2018-05-26T16:53:33.797Z,1018.5
2018-05-26T16:58:33.748Z,1018.5
2018-05-26T17:03:33.693Z,1018.4
2018-05-26T17:08:33.537Z,1018.5
2018-05-26T17:13:33.817Z,1018.5
2018-05-26T17:18:33.509Z,1018.5
2018-05-26T17:23:33.605Z,1018.5
2018-05-26T17:28:33.883Z,1018.5
2018-05-26T17:33:33.740Z,1018.6
2018-05-26T17:38:33.780Z,1018.7
2018-05-26T17:43:33.647Z,1018.6
2018-05-26T17:48:34.511Z,1018.7
2018-05-26T17:53:38.296Z,1018.7
2018-05-26T17:58:38.012Z,1018.7
2018-05-26T18:03:48.511Z,1018.8
2018-05-26T18:08:49.981Z,1018.8
2018-05-26T18:13:48.949Z,1018.8
2018-05-26T18:18:48.189Z,1018.8
2018-05-26T18:23:48.231Z,1018.8
2018-05-26T18:28:49.416Z,1018.8
2018-05-26T18:33:48.238Z,1018.8
2018-05-26T18:38:50.982Z,1018.9
2018-05-26T18:43:50.467Z,1018.9
2018-05-26T18:49:03.213Z,1019
2018-05-26T18:54:03.077Z,1018.9
2018-05-26T18:59:02.784Z,1019
2018-05-26T19:04:03.828Z,1019.2
2018-05-26T19:09:02.997Z,1019.3
2018-05-26T19:14:04.140Z,1019.3
2018-05-26T19:19:05.138Z,1019.5
2018-05-26T19:24:03.941Z,1019.6
2018-05-26T19:29:05.114Z,1019.6
2018-05-26T19:34:04.464Z,1019.7
2018-05-26T19:39:04.481Z,1019.8
2018-05-26T19:44:04.198Z,1019.8
2018-05-26T19:49:05.722Z,1019.9
2018-05-26T19:54:05.628Z,1020
2018-05-26T19:59:19.805Z,1020.1
2018-05-26T20:04:19.610Z,1020.1
2018-05-26T20:09:19.570Z,1020.3
2018-05-26T20:14:19.860Z,1020.4
2018-05-26T20:19:19.886Z,1020.3
2018-05-26T20:24:20.790Z,1020.3
2018-05-26T20:29:19.651Z,1020.4
2018-05-26T20:34:20.702Z,1020.4
2018-05-26T20:39:40.418Z,1020.3
2018-05-26T20:45:00.339Z,1020.3
2018-05-26T20:49:33.231Z,1020.3
2018-05-26T20:54:33.457Z,1020.4
2018-05-26T20:59:33.218Z,1020.4
2018-05-26T21:04:33.279Z,1020.6
2018-05-26T21:09:33.465Z,1020.7
2018-05-26T21:14:33.693Z,1020.7
2018-05-26T21:19:33.605Z,1020.7
2018-05-26T21:24:34.464Z,1020.7
2018-05-26T21:29:47.013Z,1020.9
2018-05-26T21:34:45.576Z,1020.9
2018-05-26T21:39:45.506Z,1020.9
2018-05-26T21:44:47.093Z,1020.9
2018-05-26T21:49:45.670Z,1020.9
2018-05-26T21:54:46.422Z,1021
2018-05-26T21:59:46.412Z,1021
2018-05-26T22:04:45.375Z,1021
2018-05-26T22:09:45.368Z,1021
2018-05-26T22:15:00.317Z,1021.1
2018-05-26T22:20:00.897Z,1021.1
2018-05-26T22:25:00.318Z,1021
2018-05-26T22:30:00.800Z,1021
2018-05-26T22:35:00.073Z,1021
2018-05-26T22:40:00.058Z,1021
2018-05-26T22:45:00.058Z,1021
2018-05-26T22:50:04.869Z,1020.9
2018-05-26T22:55:06.115Z,1021.1
2018-05-26T23:00:14.264Z,1021
2018-05-26T23:05:14.273Z,1021
2018-05-26T23:10:13.849Z,1021.1
2018-05-26T23:15:13.858Z,1021.2
2018-05-26T23:20:14.045Z,1021.1
2018-05-26T23:25:14.300Z,1021.2
2018-05-26T23:30:13.811Z,1021.1
2018-05-26T23:35:15.573Z,1021
2018-05-26T23:40:15.510Z,1021.1
2018-05-26T23:45:29.236Z,1021
2018-05-26T23:50:29.629Z,1020.9
2018-05-26T23:55:29.450Z,1020.9
